Terminal Aerodrome Forecast
Issued by NWS Blacksburg, VA

Home | Current Version | Previous Version | Text Only | Print | Product List | Glossary On
Versions: 1 2 3 4 5 6 7 8 9 10 11 12 13 14 15 16 17 18 19 20 21 22 23 24 25 26 27 28 29 30 31 32 33 34 35
000
FTUS41 KRNK 050104 AAA
TAFBLF
TAF AMD
KBLF 050104Z 0501/0524 16007KT P6SM -RA BKN015 OVC040
      TEMPO 0501/0504 P6SM NSW SCT015 OVC035
     FM050700 20005KT 5SM -RA BR OVC010 WS020/22045KT
     FM050900 27008KT 5SM BR OVC007 WS020/23040KT
     FM051300 30008KT P6SM OVC020
     FM051600 31008KT P6SM SCT020 BKN250
     FM052200 VRB03KT P6SM SCT150 BKN250=

USA.gov is the U.S. government's official web portal to all federal, state and local government web resources and services.